Time;durP1;ratioP1;P1;durP2;ratioP2;P2;SDS_P1;SDS_P2;PMS_P1;PMS_P2;Temp;Humidity;BMP_temperature;BMP_pressure;BME280_temperature;BME280_humidity;BME280_pressure;Samples;Min_cycle;Max_cycle;Signal;HPM_P1;HPM_P2
2024/04/04 00:01:22;;;;;;;7.32;1.10;;;;;;;;;;5032170;28;20148;-67
2024/04/04 00:03:48;;;;;;;7.00;1.35;;;;;;;;;;5026769;28;20058;-66
2024/04/04 00:06:15;;;;;;;8.77;1.02;;;;;;;;;;5031578;28;20049;-65
2024/04/04 00:08:41;;;;;;;1.48;0.80;;;;;;;;;;5030703;28;20059;-66
2024/04/04 00:11:10;;;;;;;6.40;0.90;;;;;;;;;;5029466;28;20037;-68
2024/04/04 00:13:36;;;;;;;8.98;1.58;;;;;;;;;;5020527;28;20046;-66
2024/04/04 00:16:04;;;;;;;9.18;1.08;;;;;;;;;;5013022;28;20131;-67
2024/04/04 00:18:30;;;;;;;4.70;0.90;;;;;;;;;;5014562;28;20457;-67
2024/04/04 00:20:56;;;;;;;3.85;0.98;;;;;;;;;;5021646;28;20139;-66
2024/04/04 00:23:22;;;;;;;5.22;0.90;;;;;;;;;;5020951;28;20058;-66
2024/04/04 00:25:49;;;;;;;7.22;1.42;;;;;;;;;;5015476;28;20077;-66
2024/04/04 00:28:16;;;;;;;8.48;1.48;;;;;;;;;;5008065;28;20057;-67
2024/04/04 00:30:43;;;;;;;11.60;1.13;;;;;;;;;;5021411;28;20173;-66
2024/04/04 00:33:10;;;;;;;7.22;1.13;;;;;;;;;;5022557;28;20045;-65
2024/04/04 00:35:36;;;;;;;2.38;0.75;;;;;;;;;;5019091;28;20115;-66
2024/04/04 00:38:02;;;;;;;3.47;1.05;;;;;;;;;;5015325;28;21852;-66
2024/04/04 00:40:35;;;;;;;7.47;1.00;;;;;;;;;;5020688;28;20064;-66
2024/04/04 00:43:01;;;;;;;9.55;1.15;;;;;;;;;;5036555;28;20049;-66
2024/04/04 00:45:29;;;;;;;3.95;1.13;;;;;;;;;;5039261;28;20103;-66
2024/04/04 00:47:57;;;;;;;4.60;0.85;;;;;;;;;;5006753;28;20104;-66
2024/04/04 00:50:24;;;;;;;5.40;1.00;;;;;;;;;;5035251;28;20436;-65
2024/04/04 00:52:50;;;;;;;1.92;0.73;;;;;;;;;;5016465;28;20053;-65
2024/04/04 00:55:17;;;;;;;6.25;1.40;;;;;;;;;;5008291;28;20042;-65
2024/04/04 00:57:44;;;;;;;4.20;1.02;;;;;;;;;;4999877;28;20250;-66
2024/04/04 01:00:13;;;;;;;4.72;0.70;;;;;;;;;;5015398;28;22205;-65
2024/04/04 01:02:40;;;;;;;9.63;0.90;;;;;;;;;;5022375;28;20079;-65
2024/04/04 01:05:07;;;;;;;2.47;0.90;;;;;;;;;;4938809;28;20394;-66
2024/04/04 01:07:33;;;;;;;5.97;1.00;;;;;;;;;;4936369;28;20107;-66
2024/04/04 01:10:04;;;;;;;9.63;1.35;;;;;;;;;;4936183;28;20051;-66
2024/04/04 01:12:30;;;;;;;4.95;1.15;;;;;;;;;;4942532;28;20051;-66
2024/04/04 01:14:57;;;;;;;7.82;0.85;;;;;;;;;;5005812;28;20805;-66
2024/04/04 01:17:22;;;;;;;9.38;1.38;;;;;;;;;;5002824;28;20059;-67
2024/04/04 01:19:50;;;;;;;5.30;1.10;;;;;;;;;;4999441;28;20054;-66
2024/04/04 01:22:16;;;;;;;5.30;0.95;;;;;;;;;;5005898;28;20062;-66
2024/04/04 01:24:44;;;;;;;7.38;1.20;;;;;;;;;;5003404;28;20055;-66
2024/04/04 01:27:12;;;;;;;6.57;0.80;;;;;;;;;;5016467;28;20187;-66
2024/04/04 01:29:40;;;;;;;4.55;0.98;;;;;;;;;;5003016;28;20328;-66
2024/04/04 01:32:05;;;;;;;4.72;1.00;;;;;;;;;;5003715;28;20047;-66
2024/04/04 01:34:32;;;;;;;4.95;1.25;;;;;;;;;;4940353;28;20044;-67
2024/04/04 01:36:58;;;;;;;6.22;0.98;;;;;;;;;;4930567;28;20282;-65
2024/04/04 01:39:26;;;;;;;3.40;0.70;;;;;;;;;;5005855;28;20059;-65
2024/04/04 01:41:54;;;;;;;8.02;1.15;;;;;;;;;;4998533;28;20066;-66
2024/04/04 01:44:21;;;;;;;3.90;0.70;;;;;;;;;;5006489;28;20059;-66
2024/04/04 01:46:46;;;;;;;5.55;0.77;;;;;;;;;;4912785;28;20047;-65
2024/04/04 01:49:14;;;;;;;8.85;1.40;;;;;;;;;;5002072;28;20069;-65
2024/04/04 01:51:40;;;;;;;11.77;1.15;;;;;;;;;;5003411;28;20114;-66
2024/04/04 01:54:07;;;;;;;4.75;1.15;;;;;;;;;;5000181;28;20055;-65
2024/04/04 01:56:33;;;;;;;6.43;0.70;;;;;;;;;;4937255;28;20123;-66
2024/04/04 01:59:01;;;;;;;4.20;0.98;;;;;;;;;;4938013;28;20126;-65
2024/04/04 02:01:27;;;;;;;5.57;0.85;;;;;;;;;;4934873;28;20438;-65
2024/04/04 02:03:53;;;;;;;5.25;1.15;;;;;;;;;;4959300;28;20070;-66
2024/04/04 02:06:19;;;;;;;1.85;0.68;;;;;;;;;;4939340;28;20136;-65
2024/04/04 02:08:46;;;;;;;4.50;1.00;;;;;;;;;;5005499;28;20498;-65
2024/04/04 02:11:11;;;;;;;6.18;1.17;;;;;;;;;;5002213;28;20153;-65
2024/04/04 02:13:38;;;;;;;4.00;1.45;;;;;;;;;;4999640;28;20555;-65
2024/04/04 02:16:06;;;;;;;8.05;1.77;;;;;;;;;;4999900;28;21203;-65
2024/04/04 02:18:32;;;;;;;6.32;1.52;;;;;;;;;;5004753;28;20415;-65
2024/04/04 02:20:58;;;;;;;5.65;1.45;;;;;;;;;;5004235;28;20074;-65
2024/04/04 02:23:25;;;;;;;3.33;0.80;;;;;;;;;;4992609;28;20055;-65
2024/04/04 02:25:50;;;;;;;4.95;0.88;;;;;;;;;;4933454;28;20054;-65
2024/04/04 02:28:17;;;;;;;8.82;1.27;;;;;;;;;;5002980;28;20055;-65
2024/04/04 02:30:43;;;;;;;6.85;0.98;;;;;;;;;;4939681;28;20059;-66
2024/04/04 02:33:11;;;;;;;3.45;0.82;;;;;;;;;;4940857;28;20051;-66
2024/04/04 02:35:37;;;;;;;5.43;1.00;;;;;;;;;;4997948;28;20458;-66
2024/04/04 02:38:04;;;;;;;2.65;0.90;;;;;;;;;;5001438;28;20142;-66
2024/04/04 02:40:29;;;;;;;8.90;1.00;;;;;;;;;;4938659;28;20066;-66
2024/04/04 02:42:56;;;;;;;5.53;1.27;;;;;;;;;;4939868;28;20071;-66
2024/04/04 02:45:22;;;;;;;4.75;0.95;;;;;;;;;;4999622;28;20055;-66
2024/04/04 02:47:49;;;;;;;4.22;1.10;;;;;;;;;;4932835;28;20134;-66
2024/04/04 02:50:16;;;;;;;5.38;0.88;;;;;;;;;;5000820;28;20097;-66
2024/04/04 02:52:43;;;;;;;2.58;0.75;;;;;;;;;;5000525;28;20560;-66
2024/04/04 02:55:09;;;;;;;6.15;0.95;;;;;;;;;;4995840;28;20501;-66
2024/04/04 02:57:40;;;;;;;3.10;0.80;;;;;;;;;;4934680;28;20059;-67
2024/04/04 03:00:08;;;;;;;3.70;0.80;;;;;;;;;;5014688;28;20063;-67
2024/04/04 03:02:35;;;;;;;;;;;;;;;;;;5002579;28;20059;-64
2024/04/04 03:05:00;;;;;;;5.32;1.10;;;;;;;;;;5004781;28;19954;-65
2024/04/04 03:07:28;;;;;;;8.65;1.02;;;;;;;;;;5000880;28;20139;-65
2024/04/04 03:09:54;;;;;;;4.30;0.90;;;;;;;;;;4995011;28;20147;-65
2024/04/04 03:12:21;;;;;;;3.08;0.90;;;;;;;;;;4936373;28;20048;-65
2024/04/04 03:14:46;;;;;;;7.45;0.88;;;;;;;;;;4997147;28;20052;-65
2024/04/04 03:17:13;;;;;;;6.35;1.17;;;;;;;;;;5001782;28;20146;-65
2024/04/04 03:19:39;;;;;;;3.33;0.95;;;;;;;;;;5000426;28;20140;-65
2024/04/04 03:22:06;;;;;;;4.97;0.88;;;;;;;;;;4931195;28;20137;-65
2024/04/04 03:24:36;;;;;;;4.13;0.80;;;;;;;;;;4986673;28;20055;-65
2024/04/04 03:27:02;;;;;;;6.85;1.00;;;;;;;;;;4926800;28;20235;-65
2024/04/04 03:29:28;;;;;;;3.60;1.08;;;;;;;;;;5001230;28;20055;-65
2024/04/04 03:31:55;;;;;;;7.93;1.10;;;;;;;;;;4996024;28;20113;-65
2024/04/04 03:34:20;;;;;;;3.00;0.80;;;;;;;;;;4997247;28;20067;-65
2024/04/04 03:36:48;;;;;;;5.97;1.00;;;;;;;;;;5002348;28;20047;-65
2024/04/04 03:39:15;;;;;;;3.67;0.63;;;;;;;;;;5002644;28;20065;-66
2024/04/04 03:41:45;;;;;;;1.92;0.80;;;;;;;;;;5001532;28;20047;-65
2024/04/04 03:44:11;;;;;;;2.00;0.80;;;;;;;;;;5012710;28;20058;-66
2024/04/04 03:46:37;;;;;;;2.42;0.73;;;;;;;;;;4935514;28;20055;-65
2024/04/04 03:49:04;;;;;;;5.43;1.00;;;;;;;;;;4936649;28;20047;-64
2024/04/04 03:51:31;;;;;;;2.63;0.95;;;;;;;;;;5005497;28;20052;-65
2024/04/04 03:53:56;;;;;;;3.13;1.00;;;;;;;;;;4995969;28;20055;-65
2024/04/04 03:56:23;;;;;;;2.40;0.80;;;;;;;;;;5003830;28;20058;-65
2024/04/04 03:58:50;;;;;;;2.20;0.88;;;;;;;;;;5004659;28;20063;-65
2024/04/04 04:01:17;;;;;;;2.55;0.90;;;;;;;;;;4925480;28;20574;-65
2024/04/04 04:03:43;;;;;;;1.42;0.73;;;;;;;;;;4922726;28;20051;-64
2024/04/04 04:06:10;;;;;;;2.88;0.85;;;;;;;;;;5028080;28;20051;-65
2024/04/04 04:08:35;;;;;;;3.85;1.00;;;;;;;;;;5017692;28;20330;-64
2024/04/04 04:11:02;;;;;;;1.85;0.73;;;;;;;;;;5003248;28;20048;-65
2024/04/04 04:13:28;;;;;;;6.07;1.13;;;;;;;;;;4935164;28;20063;-64
2024/04/04 04:15:57;;;;;;;6.40;1.30;;;;;;;;;;4997959;28;20055;-64
2024/04/04 04:18:22;;;;;;;5.20;1.05;;;;;;;;;;4941534;28;20066;-64
2024/04/04 04:23:33;;;;;;;2.70;1.10;;;;;;;;;;4935705;28;20074;-65
2024/04/04 04:26:02;;;;;;;4.28;1.00;;;;;;;;;;4935965;28;20126;-64
2024/04/04 04:28:28;;;;;;;3.38;1.20;;;;;;;;;;5022876;28;20090;-64
2024/04/04 04:30:57;;;;;;;7.68;1.40;;;;;;;;;;5005794;28;20250;-64
2024/04/04 04:33:22;;;;;;;3.50;1.15;;;;;;;;;;4935818;28;20063;-64
2024/04/04 04:35:49;;;;;;;5.70;1.67;;;;;;;;;;4937028;28;20216;-64
2024/04/04 04:38:15;;;;;;;5.95;1.67;;;;;;;;;;4937160;28;20059;-65
2024/04/04 04:40:42;;;;;;;5.38;1.70;;;;;;;;;;4938882;28;20071;-64
2024/04/04 04:43:09;;;;;;;7.35;1.85;;;;;;;;;;5004193;28;20138;-65
2024/04/04 04:45:36;;;;;;;4.00;1.23;;;;;;;;;;5001645;28;20065;-65
2024/04/04 04:48:04;;;;;;;7.50;3.67;;;;;;;;;;5002358;28;20120;-64
2024/04/04 04:50:30;;;;;;;2.58;1.60;;;;;;;;;;4926301;28;20142;-65
2024/04/04 04:52:56;;;;;;;3.38;1.20;;;;;;;;;;5001426;28;20059;-65
2024/04/04 04:55:23;;;;;;;3.08;1.20;;;;;;;;;;4931052;28;20087;-64
2024/04/04 04:57:48;;;;;;;4.05;1.30;;;;;;;;;;4988209;28;20056;-65
2024/04/04 05:00:15;;;;;;;4.63;1.42;;;;;;;;;;4936951;28;20055;-65
2024/04/04 05:02:41;;;;;;;3.58;1.35;;;;;;;;;;4931423;28;20082;-64
2024/04/04 05:05:15;;;;;;;7.00;1.65;;;;;;;;;;4933519;28;20121;-66
2024/04/04 05:07:41;;;;;;;6.18;1.33;;;;;;;;;;4927790;28;20063;-66
2024/04/04 05:10:08;;;;;;;2.65;1.15;;;;;;;;;;4998186;28;20986;-65
2024/04/04 05:12:34;;;;;;;4.93;1.50;;;;;;;;;;4994564;28;20047;-65
2024/04/04 05:15:00;;;;;;;4.57;1.58;;;;;;;;;;4986351;28;20082;-66
2024/04/04 05:17:26;;;;;;;5.57;1.98;;;;;;;;;;4987700;28;20039;-65
2024/04/04 05:19:53;;;;;;;5.20;2.10;;;;;;;;;;5005853;28;20158;-65
2024/04/04 05:22:20;;;;;;;6.28;1.52;;;;;;;;;;4996039;28;20067;-65
2024/04/04 05:24:47;;;;;;;5.60;1.98;;;;;;;;;;4996541;28;20093;-66
2024/04/04 05:27:12;;;;;;;3.78;1.63;;;;;;;;;;4992492;28;20103;-65
2024/04/04 05:29:40;;;;;;;8.25;1.60;;;;;;;;;;4988873;28;20058;-66
2024/04/04 05:32:06;;;;;;;9.30;2.20;;;;;;;;;;4996644;28;21585;-65
2024/04/04 05:34:33;;;;;;;5.03;2.20;;;;;;;;;;5015804;28;20048;-65
2024/04/04 05:37:00;;;;;;;9.60;2.65;;;;;;;;;;5000813;28;20051;-65
2024/04/04 05:39:28;;;;;;;6.32;1.90;;;;;;;;;;5005766;28;20057;-65
2024/04/04 05:41:54;;;;;;;3.47;1.65;;;;;;;;;;4996229;28;20062;-65
2024/04/04 05:44:21;;;;;;;4.20;1.63;;;;;;;;;;4936360;28;20052;-67
2024/04/04 05:46:47;;;;;;;2.50;1.40;;;;;;;;;;4935666;28;20048;-67
2024/04/04 05:49:14;;;;;;;4.53;1.55;;;;;;;;;;5004381;28;20062;-65
2024/04/04 05:51:39;;;;;;;4.35;1.67;;;;;;;;;;4993171;28;20086;-65
2024/04/04 05:54:06;;;;;;;4.68;1.52;;;;;;;;;;4998850;28;20067;-67
2024/04/04 05:56:33;;;;;;;5.10;2.30;;;;;;;;;;5004800;28;20123;-67
2024/04/04 05:59:00;;;;;;;8.35;3.35;;;;;;;;;;5003376;28;20135;-66
2024/04/04 06:01:26;;;;;;;6.95;2.92;;;;;;;;;;5005718;28;20140;-68
2024/04/04 06:03:53;;;;;;;3.70;1.90;;;;;;;;;;4932936;28;20490;-65
2024/04/04 06:06:19;;;;;;;4.30;2.30;;;;;;;;;;4938579;28;20069;-67
2024/04/04 06:08:45;;;;;;;6.07;2.38;;;;;;;;;;5005334;28;20048;-66
2024/04/04 06:11:11;;;;;;;6.60;2.08;;;;;;;;;;5004150;28;20166;-66
2024/04/04 06:13:39;;;;;;;5.82;1.90;;;;;;;;;;4990826;28;20066;-66
2024/04/04 06:16:06;;;;;;;7.68;2.03;;;;;;;;;;4931056;28;20051;-66
2024/04/04 06:18:32;;;;;;;4.88;2.05;;;;;;;;;;4938942;28;20051;-66
2024/04/04 06:21:03;;;;;;;5.88;2.22;;;;;;;;;;4936890;28;20105;-67
2024/04/04 06:23:30;;;;;;;3.67;1.52;;;;;;;;;;5009307;28;20061;-67
2024/04/04 06:25:58;;;;;;;5.00;2.00;;;;;;;;;;5028945;28;20049;-65
2024/04/04 06:28:25;;;;;;;6.55;1.75;;;;;;;;;;5019590;28;20048;-64
2024/04/04 06:30:52;;;;;;;5.18;1.48;;;;;;;;;;5037964;28;20053;-64
2024/04/04 06:33:19;;;;;;;4.43;1.35;;;;;;;;;;5014509;28;20483;-65
2024/04/04 06:35:45;;;;;;;8.40;1.23;;;;;;;;;;4968953;28;20052;-67
2024/04/04 06:38:11;;;;;;;6.97;2.08;;;;;;;;;;5017356;28;20066;-67
2024/04/04 06:40:38;;;;;;;5.82;1.92;;;;;;;;;;5006381;28;20063;-67
2024/04/04 06:43:06;;;;;;;6.80;1.85;;;;;;;;;;5004302;28;20146;-67
2024/04/04 06:45:32;;;;;;;4.47;1.27;;;;;;;;;;4989111;28;20055;-65
2024/04/04 06:48:01;;;;;;;4.55;1.23;;;;;;;;;;5000321;28;20059;-66
2024/04/04 06:50:37;;;;;;;4.05;1.00;;;;;;;;;;4941447;28;20055;-66
2024/04/04 06:53:04;;;;;;;1.98;0.82;;;;;;;;;;5025199;28;20057;-66
2024/04/04 06:55:31;;;;;;;7.97;1.20;;;;;;;;;;4837409;28;20055;-64
2024/04/04 06:58:00;;;;;;;1.90;1.00;;;;;;;;;;4935303;28;20083;-65
2024/04/04 07:00:25;;;;;;;3.67;1.20;;;;;;;;;;4950032;28;20063;-63
2024/04/04 07:02:52;;;;;;;3.42;1.00;;;;;;;;;;4872487;28;20055;-63
2024/04/04 07:05:23;;;;;;;7.00;0.95;;;;;;;;;;4946684;28;20093;-63
2024/04/04 07:07:53;;;;;;;1.95;0.63;;;;;;;;;;4930977;28;20070;-64
2024/04/04 07:10:27;;;;;;;5.03;1.30;;;;;;;;;;4925695;28;20065;-64
2024/04/04 07:12:54;;;;;;;7.63;1.35;;;;;;;;;;4893861;28;20074;-65
2024/04/04 07:15:19;;;;;;;4.72;1.30;;;;;;;;;;4944814;28;20042;-64
2024/04/04 07:17:52;;;;;;;3.90;1.33;;;;;;;;;;4931083;28;20098;-64
2024/04/04 07:20:20;;;;;;;8.15;1.88;;;;;;;;;;4929871;28;20529;-65
2024/04/04 07:22:53;;;;;;;4.65;1.20;;;;;;;;;;4896133;28;20055;-64
2024/04/04 07:25:19;;;;;;;6.45;1.45;;;;;;;;;;4911207;28;20078;-64
2024/04/04 07:27:50;;;;;;;5.65;1.25;;;;;;;;;;4958513;28;20208;-64
2024/04/04 07:30:16;;;;;;;4.20;1.02;;;;;;;;;;4957897;28;20058;-64
2024/04/04 07:32:43;;;;;;;5.43;0.90;;;;;;;;;;4895276;28;20060;-64
2024/04/04 07:35:09;;;;;;;6.45;1.10;;;;;;;;;;4925151;28;20104;-64
2024/04/04 07:37:40;;;;;;;3.83;0.93;;;;;;;;;;4936558;28;20198;-63
2024/04/04 07:40:08;;;;;;;3.17;0.95;;;;;;;;;;4936214;28;20224;-63
2024/04/04 07:42:39;;;;;;;5.60;1.80;;;;;;;;;;4920415;28;20069;-63
2024/04/04 07:45:06;;;;;;;4.25;1.23;;;;;;;;;;4935358;28;20116;-63
2024/04/04 07:47:34;;;;;;;2.38;1.00;;;;;;;;;;4936803;28;20055;-64
2024/04/04 07:50:07;;;;;;;5.28;1.15;;;;;;;;;;4932957;28;20054;-63
2024/04/04 07:52:34;;;;;;;7.85;2.17;;;;;;;;;;4921417;28;20186;-66
2024/04/04 07:55:01;;;;;;;7.05;2.72;;;;;;;;;;4940637;28;20662;-66
2024/04/04 07:57:28;;;;;;;3.92;1.38;;;;;;;;;;4932236;28;20267;-65
2024/04/04 07:59:54;;;;;;;2.63;0.77;;;;;;;;;;4953498;28;20054;-65
2024/04/04 08:02:25;;;;;;;6.10;1.00;;;;;;;;;;4944392;28;20162;-65
2024/04/04 08:04:51;;;;;;;7.78;2.83;;;;;;;;;;4924508;28;20132;-66
2024/04/04 08:07:17;;;;;;;5.07;2.05;;;;;;;;;;4936516;28;20138;-66
2024/04/04 08:09:43;;;;;;;6.57;1.55;;;;;;;;;;4933110;28;20063;-65
2024/04/04 08:12:12;;;;;;;8.13;1.35;;;;;;;;;;4949228;28;20171;-67
2024/04/04 08:14:44;;;;;;;5.20;1.23;;;;;;;;;;4923250;28;20125;-66
2024/04/04 08:17:10;;;;;;;;;;;;;;;;;;4951393;28;20059;-66
2024/04/04 08:19:36;;;;;;;3.65;1.35;;;;;;;;;;4950358;28;19954;-67
2024/04/04 08:22:07;;;;;;;7.57;2.63;;;;;;;;;;4932452;28;20051;-66
2024/04/04 08:24:35;;;;;;;6.43;1.80;;;;;;;;;;4909379;28;20520;-67
2024/04/04 08:27:05;;;;;;;4.78;1.27;;;;;;;;;;4958093;28;20166;-67
2024/04/04 08:29:32;;;;;;;1.98;0.90;;;;;;;;;;4937043;28;20054;-66
2024/04/04 08:31:59;;;;;;;3.72;1.08;;;;;;;;;;4952795;28;20066;-66
2024/04/04 08:34:27;;;;;;;3.60;1.30;;;;;;;;;;4911979;28;20932;-67
2024/04/04 08:36:54;;;;;;;1.50;0.70;;;;;;;;;;4932048;28;20054;-66
2024/04/04 08:39:20;;;;;;;3.78;0.90;;;;;;;;;;4935804;28;20074;-66
2024/04/04 08:41:47;;;;;;;2.42;0.77;;;;;;;;;;4952385;28;20059;-67
2024/04/04 08:44:13;;;;;;;1.55;0.70;;;;;;;;;;4932928;28;20143;-66
2024/04/04 08:46:42;;;;;;;3.72;1.02;;;;;;;;;;4947768;28;20055;-66
2024/04/04 08:49:10;;;;;;;3.00;0.90;;;;;;;;;;4931341;28;20055;-66
2024/04/04 08:51:37;;;;;;;3.17;1.00;;;;;;;;;;4934173;28;20055;-67
2024/04/04 08:54:08;;;;;;;4.75;1.05;;;;;;;;;;4933767;28;20066;-66
2024/04/04 08:56:35;;;;;;;20.40;8.02;;;;;;;;;;4926584;28;20463;-67
2024/04/04 08:59:01;;;;;;;3.40;1.63;;;;;;;;;;4960619;28;20579;-66
2024/04/04 09:01:28;;;;;;;5.88;1.85;;;;;;;;;;4950019;28;20081;-66
2024/04/04 09:03:58;;;;;;;4.00;1.23;;;;;;;;;;4926463;28;20047;-66
2024/04/04 09:06:31;;;;;;;3.45;0.98;;;;;;;;;;4944201;28;20055;-67
2024/04/04 09:09:00;;;;;;;2.95;0.70;;;;;;;;;;4945162;28;20047;-65
2024/04/04 09:11:27;;;;;;;3.28;1.05;;;;;;;;;;4928660;28;20446;-68
2024/04/04 09:14:02;;;;;;;2.92;1.30;;;;;;;;;;4909360;28;20067;-67
2024/04/04 09:16:29;;;;;;;6.38;2.42;;;;;;;;;;4926542;28;20058;-66
2024/04/04 09:19:10;;;;;;;4.40;0.90;;;;;;;;;;4955193;28;20112;-66
2024/04/04 09:21:37;;;;;;;2.42;1.00;;;;;;;;;;4928893;28;20066;-66
2024/04/04 09:24:04;;;;;;;2.60;0.95;;;;;;;;;;4910401;28;20054;-65
2024/04/04 09:26:31;;;;;;;3.42;1.10;;;;;;;;;;4939583;28;20065;-65
2024/04/04 09:28:58;;;;;;;3.15;1.02;;;;;;;;;;4934663;28;20050;-64
2024/04/04 09:31:28;;;;;;;5.20;1.38;;;;;;;;;;4947468;28;20063;-66
2024/04/04 09:33:57;;;;;;;5.60;1.20;;;;;;;;;;4927653;28;20124;-65
2024/04/04 09:36:27;;;;;;;3.60;1.13;;;;;;;;;;4925721;28;20338;-65
2024/04/04 09:38:54;;;;;;;2.47;0.98;;;;;;;;;;4945076;28;20071;-65
2024/04/04 09:41:21;;;;;;;2.78;1.13;;;;;;;;;;4929803;28;20114;-66
2024/04/04 09:43:47;;;;;;;2.42;1.17;;;;;;;;;;4910114;28;20066;-65
2024/04/04 09:46:19;;;;;;;5.35;0.95;;;;;;;;;;4936269;28;20058;-65
2024/04/04 09:48:45;;;;;;;4.50;1.45;;;;;;;;;;4945497;28;21863;-65
2024/04/04 09:51:13;;;;;;;9.02;1.20;;;;;;;;;;4928638;28;20050;-65
2024/04/04 09:53:42;;;;;;;2.40;1.10;;;;;;;;;;4906764;28;20062;-65
2024/04/04 09:56:11;;;;;;;4.97;1.10;;;;;;;;;;4949184;28;20082;-65
2024/04/04 09:58:41;;;;;;;3.53;1.20;;;;;;;;;;4946026;28;20137;-66
2024/04/04 10:01:18;;;;;;;7.32;1.10;;;;;;;;;;4946015;28;20074;-65
2024/04/04 10:03:48;;;;;;;1.90;0.70;;;;;;;;;;4903912;28;20503;-66
2024/04/04 10:06:36;;;;;;;2.63;1.00;;;;;;;;;;4945582;28;20067;-64
2024/04/04 10:09:14;;;;;;;4.03;1.20;;;;;;;;;;4949344;28;20046;-64
2024/04/04 10:11:41;;;;;;;1.65;0.85;;;;;;;;;;4931616;28;20077;-65
2024/04/04 10:14:13;;;;;;;4.15;1.00;;;;;;;;;;4912808;28;20117;-65
2024/04/04 10:16:44;;;;;;;4.07;1.40;;;;;;;;;;4942033;28;20371;-64
2024/04/04 10:19:11;;;;;;;3.03;1.10;;;;;;;;;;4947147;28;20545;-66
2024/04/04 10:21:42;;;;;;;3.25;0.90;;;;;;;;;;4931855;28;20055;-66
2024/04/04 10:24:09;;;;;;;7.30;1.10;;;;;;;;;;4928067;28;20121;-65
2024/04/04 10:26:38;;;;;;;2.95;1.00;;;;;;;;;;4923413;28;20093;-68
2024/04/04 10:29:11;;;;;;;1.70;0.65;;;;;;;;;;4948537;28;20082;-69
2024/04/04 10:31:41;;;;;;;2.95;0.73;;;;;;;;;;4932995;28;20152;-67
2024/04/04 10:34:09;;;;;;;2.40;0.80;;;;;;;;;;4910124;28;20050;-66
2024/04/04 10:36:45;;;;;;;6.22;1.73;;;;;;;;;;4922522;28;20462;-66
2024/04/04 10:39:16;;;;;;;3.00;1.10;;;;;;;;;;4945940;28;20067;-66
2024/04/04 10:41:46;;;;;;;4.25;1.00;;;;;;;;;;4942941;28;20055;-66
2024/04/04 10:44:17;;;;;;;2.88;0.77;;;;;;;;;;4908652;28;20054;-67
2024/04/04 10:46:47;;;;;;;4.30;0.82;;;;;;;;;;4945278;28;20113;-67
2024/04/04 10:49:17;;;;;;;4.97;0.80;;;;;;;;;;4929898;28;20055;-67
2024/04/04 10:51:55;;;;;;;7.38;2.22;;;;;;;;;;4929724;28;20088;-67
2024/04/04 10:54:21;;;;;;;4.70;2.00;;;;;;;;;;4909816;28;20063;-68
2024/04/04 10:56:50;;;;;;;6.00;1.83;;;;;;;;;;4943690;28;20051;-67
2024/04/04 10:59:20;;;;;;;2.65;0.90;;;;;;;;;;4930597;28;20057;-67
2024/04/04 11:01:49;;;;;;;5.78;1.00;;;;;;;;;;4938286;28;20062;-67
2024/04/04 11:04:19;;;;;;;1.70;0.52;;;;;;;;;;4921239;28;20046;-68
2024/04/04 11:06:54;;;;;;;2.75;0.65;;;;;;;;;;4935475;28;20085;-69
2024/04/04 11:09:26;;;;;;;1.98;0.57;;;;;;;;;;4948135;28;20058;-68
2024/04/04 11:11:56;;;;;;;8.23;0.90;;;;;;;;;;4935819;28;20061;-68
2024/04/04 11:14:25;;;;;;;1.50;0.45;;;;;;;;;;4914430;28;20204;-67
2024/04/04 11:16:53;;;;;;;1.88;0.75;;;;;;;;;;4930951;28;20054;-68
2024/04/04 11:19:20;;;;;;;9.27;1.00;;;;;;;;;;4938019;28;20075;-67
2024/04/04 11:21:49;;;;;;;;;;;;;;;;;;4938647;28;20277;-67
2024/04/04 11:24:15;;;;;;;2.53;0.63;;;;;;;;;;4889650;28;20042;-69
2024/04/04 11:26:43;;;;;;;4.93;0.68;;;;;;;;;;4930915;28;20066;-67
2024/04/04 11:29:13;;;;;;;6.95;0.93;;;;;;;;;;4956401;28;20108;-68
2024/04/04 11:31:43;;;;;;;5.47;0.90;;;;;;;;;;4928505;28;20062;-66
2024/04/04 11:34:09;;;;;;;7.07;0.95;;;;;;;;;;4893289;28;20059;-67
2024/04/04 11:36:39;;;;;;;6.65;0.52;;;;;;;;;;4943339;28;21065;-70
2024/04/04 11:39:05;;;;;;;2.58;0.75;;;;;;;;;;4930079;28;20054;-67
2024/04/04 11:41:33;;;;;;;4.00;0.73;;;;;;;;;;4944571;28;20062;-67
2024/04/04 11:44:01;;;;;;;8.10;0.85;;;;;;;;;;4919370;28;20054;-67
2024/04/04 11:46:32;;;;;;;7.45;1.20;;;;;;;;;;4918955;28;20051;-68
2024/04/04 11:48:58;;;;;;;5.13;0.80;;;;;;;;;;4943312;28;20057;-65
2024/04/04 11:51:25;;;;;;;7.68;0.68;;;;;;;;;;4927837;28;20063;-66
2024/04/04 11:53:52;;;;;;;11.35;1.30;;;;;;;;;;4918970;28;20061;-69
2024/04/04 11:56:19;;;;;;;5.13;1.10;;;;;;;;;;4949197;28;20077;-68
2024/04/04 11:58:49;;;;;;;7.60;0.80;;;;;;;;;;4941652;28;20107;-65
2024/04/04 12:01:15;;;;;;;9.20;0.88;;;;;;;;;;4924803;28;20062;-66
2024/04/04 12:03:43;;;;;;;7.93;1.08;;;;;;;;;;4921045;28;20071;-68
2024/04/04 12:06:11;;;;;;;11.50;1.15;;;;;;;;;;4942646;28;20057;-67
2024/04/04 12:08:41;;;;;;;10.47;0.90;;;;;;;;;;4918758;28;20047;-66
2024/04/04 12:11:09;;;;;;;6.10;1.50;;;;;;;;;;4956198;28;20313;-67
2024/04/04 12:13:36;;;;;;;6.67;1.40;;;;;;;;;;4916979;28;20132;-68
2024/04/04 12:16:02;;;;;;;8.52;0.98;;;;;;;;;;4934216;28;20318;-69
2024/04/04 12:21:17;;;;;;;4.25;0.65;;;;;;;;;;4945686;28;20075;-68
2024/04/04 12:23:47;;;;;;;8.73;1.25;;;;;;;;;;4900567;28;20063;-67
2024/04/04 12:26:14;;;;;;;8.82;1.25;;;;;;;;;;4938369;28;20051;-66
2024/04/04 12:28:41;;;;;;;5.28;0.90;;;;;;;;;;4925382;28;21595;-67
2024/04/04 12:31:10;;;;;;;7.63;1.92;;;;;;;;;;4933439;28;20131;-69
2024/04/04 12:33:39;;;;;;;7.65;0.98;;;;;;;;;;4905509;28;20150;-66
2024/04/04 12:36:11;;;;;;;8.60;1.45;;;;;;;;;;4935581;28;20791;-67
2024/04/04 12:38:38;;;;;;;;;;;;;;;;;;4949021;28;20272;-68
2024/04/04 12:41:06;;;;;;;11.48;1.92;;;;;;;;;;4928742;28;20011;-66
2024/04/04 12:43:34;;;;;;;12.23;2.33;;;;;;;;;;4926212;28;20079;-66
2024/04/04 12:46:05;;;;;;;11.25;1.52;;;;;;;;;;4950879;28;20152;-66
2024/04/04 12:48:32;;;;;;;11.10;1.75;;;;;;;;;;4939750;28;20154;-66
2024/04/04 12:50:59;;;;;;;12.73;1.67;;;;;;;;;;4949544;28;20070;-66
2024/04/04 12:53:27;;;;;;;19.08;1.80;;;;;;;;;;4945834;28;20084;-68
2024/04/04 12:55:56;;;;;;;13.25;1.52;;;;;;;;;;4950497;28;20084;-66
2024/04/04 12:58:21;;;;;;;;;;;;;;;;;;4943857;28;20062;-69
2024/04/04 13:00:49;;;;;;;14.60;1.95;;;;;;;;;;4932470;28;19926;-68
2024/04/04 13:03:15;;;;;;;10.45;1.38;;;;;;;;;;4911730;28;20568;-68
2024/04/04 13:05:44;;;;;;;14.30;1.90;;;;;;;;;;4939205;28;20055;-67
2024/04/04 13:08:09;;;;;;;;;;;;;;;;;;4932323;28;20059;-66
2024/04/04 13:10:36;;;;;;;13.85;2.03;;;;;;;;;;4924726;28;19933;-69
2024/04/04 13:13:06;;;;;;;8.35;1.17;;;;;;;;;;4923783;28;20055;-67
2024/04/04 13:15:34;;;;;;;8.00;2.03;;;;;;;;;;4943537;28;20070;-67
2024/04/04 13:18:01;;;;;;;11.95;1.98;;;;;;;;;;4947879;28;20059;-68
2024/04/04 13:20:29;;;;;;;10.35;1.50;;;;;;;;;;4946463;28;20051;-67
2024/04/04 13:22:55;;;;;;;14.60;1.63;;;;;;;;;;4919799;28;20156;-66
2024/04/04 13:25:22;;;;;;;17.55;2.13;;;;;;;;;;4867537;28;20068;-68
2024/04/04 13:27:50;;;;;;;11.35;1.10;;;;;;;;;;4930705;28;20054;-68
2024/04/04 13:30:21;;;;;;;13.38;1.80;;;;;;;;;;4948515;28;20140;-66
2024/04/04 13:32:49;;;;;;;11.45;1.48;;;;;;;;;;4933824;28;20046;-65
2024/04/04 13:35:16;;;;;;;14.90;1.98;;;;;;;;;;4902113;28;20059;-66
2024/04/04 13:37:42;;;;;;;15.07;1.73;;;;;;;;;;4934555;28;20883;-65
2024/04/04 13:40:12;;;;;;;16.25;1.77;;;;;;;;;;4929357;28;20066;-67
2024/04/04 13:42:38;;;;;;;17.08;2.30;;;;;;;;;;4923444;28;20051;-65
2024/04/04 13:45:06;;;;;;;17.90;2.03;;;;;;;;;;4920393;28;20074;-67
2024/04/04 13:47:35;;;;;;;17.60;1.85;;;;;;;;;;4951711;28;20061;-66
2024/04/04 13:50:02;;;;;;;11.85;1.42;;;;;;;;;;4932648;28;20054;-66
2024/04/04 13:52:29;;;;;;;15.63;1.70;;;;;;;;;;4924975;28;20070;-67
2024/04/04 13:54:56;;;;;;;15.05;1.75;;;;;;;;;;4942023;28;20088;-66
2024/04/04 13:57:25;;;;;;;15.77;2.33;;;;;;;;;;4941509;28;20048;-68
2024/04/04 13:59:52;;;;;;;12.80;2.65;;;;;;;;;;4930571;28;20776;-67
2024/04/04 14:02:21;;;;;;;12.15;1.60;;;;;;;;;;4927745;28;20057;-66
2024/04/04 14:04:50;;;;;;;16.75;2.17;;;;;;;;;;4910687;28;20145;-67
2024/04/04 14:07:15;;;;;;;11.60;1.30;;;;;;;;;;4941964;28;20059;-68
2024/04/04 14:09:42;;;;;;;13.48;2.83;;;;;;;;;;4930548;28;20065;-66
2024/04/04 14:12:11;;;;;;;15.60;4.65;;;;;;;;;;4946773;28;20143;-67
2024/04/04 14:14:37;;;;;;;;;;;;;;;;;;4944920;28;20252;-67
2024/04/04 14:17:04;;;;;;;8.05;1.48;;;;;;;;;;4946685;28;19926;-68
2024/04/04 14:19:31;;;;;;;11.90;1.95;;;;;;;;;;4930899;28;20113;-68
2024/04/04 14:21:58;;;;;;;15.13;1.88;;;;;;;;;;4929682;28;20058;-67
2024/04/04 14:24:27;;;;;;;14.77;1.80;;;;;;;;;;4933042;28;20354;-68
2024/04/04 14:26:54;;;;;;;12.77;2.55;;;;;;;;;;4931309;28;20071;-67
2024/04/04 14:29:21;;;;;;;11.80;1.63;;;;;;;;;;4928389;28;20092;-66
2024/04/04 14:31:47;;;;;;;12.68;2.00;;;;;;;;;;4929277;28;20057;-65
2024/04/04 14:34:21;;;;;;;17.42;2.20;;;;;;;;;;4915431;28;20063;-67
2024/04/04 14:36:48;;;;;;;17.50;2.38;;;;;;;;;;4947527;28;20059;-68
2024/04/04 14:39:16;;;;;;;17.92;2.10;;;;;;;;;;4928789;28;20142;-65
2024/04/04 14:41:42;;;;;;;16.65;1.77;;;;;;;;;;4945235;28;20082;-65
2024/04/04 14:44:09;;;;;;;15.32;2.25;;;;;;;;;;4919157;28;20120;-67
2024/04/04 14:46:35;;;;;;;13.75;2.25;;;;;;;;;;4935551;28;20054;-65
2024/04/04 14:49:02;;;;;;;15.65;2.45;;;;;;;;;;4944552;28;20059;-66
2024/04/04 14:51:28;;;;;;;14.48;2.35;;;;;;;;;;4931691;28;20054;-66